Pagrindinis puslapis
METAR-TAF:

METAR-TAF

Oro uostai :

Osornas, Čilė

platuma: 40-36-41S, ilguma: 73-03-38W, Aukštis: 57 m

Dabartinis oras

Ataskaita buvo paskelbta 18 minutes, ne 21:00 UTC
Vėjas 5 kt iš Pietų
Temperatūra 8°C
Drėgmė 71%
Slėgis 1023 hPa
Matomumas 10 km arba daugiau
Išsisklaidę debesys ne aukštis 3000 ft

METAR: SCJO 262100Z 17005KT 9999 SCT030 08/03 Q1023

Laikas: 17:18 (21:18 UTC)

Prognozė

Ataskaita buvo paskelbta 10 valandos ir 10 minutes, ne 11:08 UTC
Prognozė galioja nuo 26 metu 12 UTC su 26 metu 24 UTC
Vėjas 5 kt iš Pietų/Pietvakarių
Matomumas 10 km arba daugiau
Išsisklaidę debesys ne aukštis 2500 ft
Tapsmas
nuo 26 metu 16 UTC su 26 metu 18 UTC
Vėjas 12 kt iš Pietų
Su prošvaistėmis ne aukštis 3000 ft

TAF: SCJO 261108Z 2612/2624 20005KT 9999 SCT025 TN00/2612Z TX10/2618Z BECMG 2616/2618 19012KT BKN030

Orai ataskaitas ir orų prognozės (METAR, TAF).

turimą stotys yra geltonos ir raudonos taškus žemėlapyje.

Perkelti pele per norėdami pamatyti stoties vardą.

Tada spustelėkite, norėdami matyti oro stebėjimo ir prognozės.

Norėdami pakeisti žemėlapį: spustelėkite ant žalios mygtukų su juodo kryžiaus žemyn,; žalią mygtuką su brūkšneliu, jei norite nutolinti; arba žalių rodyklių gretimoms žemėlapius.


METAR-TAF: